Airfield :
LOGIN :

Register | Disclaimer

   EN    FR    IT 

 










Legend :    VFR   Marginal VFR   IFR   Intensive IFR   Very Intensive IFR
Visi :
Ceiling :
>= 8 km
>= 3000ft
5 to 8 km
1000 to 3000 ft
1500m to 5 km
500 to 1000 ft
800 to 1500m
200 to 500 ft
< 800m
< 200 ft
Symbols :   Thunderstorms  Fog  Heavy snow  Heavy precipitations  Wind > 20 kt
SIGMETs :     Misc.  Thunderstorms  Icing  Turbulence  Mountain Waves  Volcanic Ashes







- Airport Elevation : 2302 ft
- Download approach charts


LEAB - Albacete

CURRENT METAR :
  • 261200Z 16007KT 110V210 9999 FEW048 15/02 Q1016 NOSIG

EXPIRED METARs :
  • 261100Z 13008KT 100V170 CAVOK 13/03 Q1017 NOSIG
  • 261000Z 14006KT 090V180 CAVOK 11/05 Q1017 NOSIG

TAF TAF LEAB
Valid from the 26 at 12:00 until the 26 at 21:00 UTC


261100Z 2612/2621 14010KT CAVOK
PROB30
TEMPO 2613/2618 FEW030TCU
No reported NOTAMs for that airfield.
1 SIGMET reported for the Madrid FIR (LECM) :
 
Severe turbulence
LECM SIGMET 5 VALID 261200/261600 LEVA
LECM MADRID FIR/UIR SEV TURB FCST WI N4230 W01130 - N45 W010 - N4340 W00150 - N4330 W00810 - N42 W00930 FL230/300 MOV N 10KT WKN=



MET'MAP, your aeronautical weather chart ! - Copyright ORBIFLY December 2007 - Disclaimer

ORBIFLY MET'MAP TEAM :

Programming & Development : Alexandra Zaïnal
Concept & Development : Baudouin d'Aumeries
Co-Development & Prog : Marc-Olivier Méhu
Technical & hardware support : Manuel Goepfert

Contact : metmap@orbifly.com




SOURCES & CREDITS :

   NOAA